sensor_id;sensor_type;location;lat;lon;timestamp;P1;durP1;ratioP1;P2;durP2;ratioP2
75820;SDS011;64454;51.984;9.838;2023-04-06T00:00:32;5.60;;;3.70;;
75820;SDS011;64454;51.984;9.838;2023-04-06T00:03:00;5.00;;;3.30;;
75820;SDS011;64454;51.984;9.838;2023-04-06T00:05:26;5.18;;;3.58;;
75820;SDS011;64454;51.984;9.838;2023-04-06T00:07:55;6.40;;;3.90;;
75820;SDS011;64454;51.984;9.838;2023-04-06T00:10:24;6.25;;;3.80;;
75820;SDS011;64454;51.984;9.838;2023-04-06T00:12:51;7.57;;;4.40;;
75820;SDS011;64454;51.984;9.838;2023-04-06T00:15:18;6.10;;;3.57;;
75820;SDS011;64454;51.984;9.838;2023-04-06T00:17:45;5.05;;;3.40;;
75820;SDS011;64454;51.984;9.838;2023-04-06T00:20:12;4.70;;;2.95;;
75820;SDS011;64454;51.984;9.838;2023-04-06T00:22:39;5.22;;;3.35;;
75820;SDS011;64454;51.984;9.838;2023-04-06T00:25:06;6.00;;;3.50;;
75820;SDS011;64454;51.984;9.838;2023-04-06T00:27:36;5.25;;;3.33;;
75820;SDS011;64454;51.984;9.838;2023-04-06T00:30:04;4.65;;;4.00;;
75820;SDS011;64454;51.984;9.838;2023-04-06T00:32:32;4.20;;;3.20;;
75820;SDS011;64454;51.984;9.838;2023-04-06T00:35:01;5.45;;;3.35;;
75820;SDS011;64454;51.984;9.838;2023-04-06T00:37:28;5.00;;;3.77;;
75820;SDS011;64454;51.984;9.838;2023-04-06T00:39:55;4.10;;;3.60;;
75820;SDS011;64454;51.984;9.838;2023-04-06T00:42:23;5.22;;;3.90;;
75820;SDS011;64454;51.984;9.838;2023-04-06T00:44:53;5.40;;;3.60;;
75820;SDS011;64454;51.984;9.838;2023-04-06T00:47:21;6.93;;;3.90;;
75820;SDS011;64454;51.984;9.838;2023-04-06T00:49:48;4.47;;;3.72;;
75820;SDS011;64454;51.984;9.838;2023-04-06T00:52:15;6.53;;;4.30;;
75820;SDS011;64454;51.984;9.838;2023-04-06T00:54:43;4.70;;;3.83;;
75820;SDS011;64454;51.984;9.838;2023-04-06T00:57:10;7.45;;;4.45;;
75820;SDS011;64454;51.984;9.838;2023-04-06T00:59:38;5.15;;;3.70;;
75820;SDS011;64454;51.984;9.838;2023-04-06T01:02:07;5.25;;;3.92;;
75820;SDS011;64454;51.984;9.838;2023-04-06T01:04:35;4.90;;;3.72;;
75820;SDS011;64454;51.984;9.838;2023-04-06T01:07:02;4.40;;;3.67;;
75820;SDS011;64454;51.984;9.838;2023-04-06T01:09:28;6.43;;;3.80;;
75820;SDS011;64454;51.984;9.838;2023-04-06T01:11:56;4.70;;;3.90;;
75820;SDS011;64454;51.984;9.838;2023-04-06T01:14:23;4.32;;;3.40;;
75820;SDS011;64454;51.984;9.838;2023-04-06T01:16:50;9.55;;;3.40;;
75820;SDS011;64454;51.984;9.838;2023-04-06T01:19:20;5.43;;;3.80;;
75820;SDS011;64454;51.984;9.838;2023-04-06T01:21:48;5.03;;;3.42;;
75820;SDS011;64454;51.984;9.838;2023-04-06T01:24:20;6.53;;;3.80;;
75820;SDS011;64454;51.984;9.838;2023-04-06T01:26:47;5.22;;;4.35;;
75820;SDS011;64454;51.984;9.838;2023-04-06T01:29:14;5.80;;;3.60;;
75820;SDS011;64454;51.984;9.838;2023-04-06T01:31:41;6.38;;;3.55;;
75820;SDS011;64454;51.984;9.838;2023-04-06T01:34:08;4.95;;;3.90;;
75820;SDS011;64454;51.984;9.838;2023-04-06T01:36:35;6.63;;;4.00;;
75820;SDS011;64454;51.984;9.838;2023-04-06T01:39:02;5.00;;;3.63;;
75820;SDS011;64454;51.984;9.838;2023-04-06T01:41:30;5.88;;;4.07;;
75820;SDS011;64454;51.984;9.838;2023-04-06T01:43:57;4.97;;;4.00;;
75820;SDS011;64454;51.984;9.838;2023-04-06T01:46:24;5.82;;;3.53;;
75820;SDS011;64454;51.984;9.838;2023-04-06T01:48:51;5.00;;;4.00;;
75820;SDS011;64454;51.984;9.838;2023-04-06T01:51:18;7.50;;;4.07;;
75820;SDS011;64454;51.984;9.838;2023-04-06T01:53:44;8.02;;;4.47;;
75820;SDS011;64454;51.984;9.838;2023-04-06T01:56:13;5.82;;;3.92;;
75820;SDS011;64454;51.984;9.838;2023-04-06T01:58:41;4.55;;;4.00;;
75820;SDS011;64454;51.984;9.838;2023-04-06T02:01:08;6.30;;;3.85;;
75820;SDS011;64454;51.984;9.838;2023-04-06T02:03:35;5.10;;;3.67;;
75820;SDS011;64454;51.984;9.838;2023-04-06T02:06:02;6.43;;;4.10;;
75820;SDS011;64454;51.984;9.838;2023-04-06T02:08:29;4.95;;;3.80;;
75820;SDS011;64454;51.984;9.838;2023-04-06T02:10:56;4.88;;;4.00;;
75820;SDS011;64454;51.984;9.838;2023-04-06T02:13:23;4.95;;;3.92;;
75820;SDS011;64454;51.984;9.838;2023-04-06T02:15:51;7.00;;;4.13;;
75820;SDS011;64454;51.984;9.838;2023-04-06T02:18:18;5.70;;;4.32;;
75820;SDS011;64454;51.984;9.838;2023-04-06T02:20:45;6.75;;;4.28;;
75820;SDS011;64454;51.984;9.838;2023-04-06T02:23:12;5.30;;;4.17;;
75820;SDS011;64454;51.984;9.838;2023-04-06T02:25:38;5.10;;;3.70;;
75820;SDS011;64454;51.984;9.838;2023-04-06T02:28:06;4.30;;;3.90;;
75820;SDS011;64454;51.984;9.838;2023-04-06T02:30:32;5.65;;;4.40;;
75820;SDS011;64454;51.984;9.838;2023-04-06T02:33:01;6.03;;;4.38;;
75820;SDS011;64454;51.984;9.838;2023-04-06T02:35:28;5.07;;;3.95;;
75820;SDS011;64454;51.984;9.838;2023-04-06T02:37:56;5.55;;;3.80;;
75820;SDS011;64454;51.984;9.838;2023-04-06T02:40:23;5.80;;;3.80;;
75820;SDS011;64454;51.984;9.838;2023-04-06T02:42:50;9.15;;;5.50;;
75820;SDS011;64454;51.984;9.838;2023-04-06T02:45:17;5.70;;;4.57;;
75820;SDS011;64454;51.984;9.838;2023-04-06T02:47:44;6.35;;;4.40;;
75820;SDS011;64454;51.984;9.838;2023-04-06T02:50:13;6.53;;;4.40;;
75820;SDS011;64454;51.984;9.838;2023-04-06T02:52:42;6.63;;;4.43;;
75820;SDS011;64454;51.984;9.838;2023-04-06T02:55:09;7.70;;;4.60;;
75820;SDS011;64454;51.984;9.838;2023-04-06T02:57:36;6.35;;;4.60;;
75820;SDS011;64454;51.984;9.838;2023-04-06T03:00:05;5.90;;;4.38;;
75820;SDS011;64454;51.984;9.838;2023-04-06T03:02:33;7.53;;;4.50;;
75820;SDS011;64454;51.984;9.838;2023-04-06T03:05:00;4.53;;;3.95;;
75820;SDS011;64454;51.984;9.838;2023-04-06T03:07:30;5.43;;;4.45;;
75820;SDS011;64454;51.984;9.838;2023-04-06T03:09:56;4.40;;;3.80;;
75820;SDS011;64454;51.984;9.838;2023-04-06T03:12:23;8.88;;;4.40;;
75820;SDS011;64454;51.984;9.838;2023-04-06T03:14:50;6.07;;;4.25;;
75820;SDS011;64454;51.984;9.838;2023-04-06T03:17:17;5.68;;;4.32;;
75820;SDS011;64454;51.984;9.838;2023-04-06T03:19:43;4.35;;;3.72;;
75820;SDS011;64454;51.984;9.838;2023-04-06T03:22:10;8.55;;;5.10;;
75820;SDS011;64454;51.984;9.838;2023-04-06T03:24:38;5.65;;;4.90;;
75820;SDS011;64454;51.984;9.838;2023-04-06T03:27:05;7.90;;;4.13;;
75820;SDS011;64454;51.984;9.838;2023-04-06T03:29:32;6.10;;;4.00;;
75820;SDS011;64454;51.984;9.838;2023-04-06T03:31:59;6.50;;;4.30;;
75820;SDS011;64454;51.984;9.838;2023-04-06T03:34:26;7.77;;;5.10;;
75820;SDS011;64454;51.984;9.838;2023-04-06T03:36:52;5.80;;;4.67;;
75820;SDS011;64454;51.984;9.838;2023-04-06T03:39:20;5.77;;;4.77;;
75820;SDS011;64454;51.984;9.838;2023-04-06T03:41:50;6.75;;;4.55;;
75820;SDS011;64454;51.984;9.838;2023-04-06T03:44:17;6.30;;;5.07;;
75820;SDS011;64454;51.984;9.838;2023-04-06T03:46:46;7.28;;;5.20;;
75820;SDS011;64454;51.984;9.838;2023-04-06T03:49:14;7.03;;;5.10;;
75820;SDS011;64454;51.984;9.838;2023-04-06T03:51:41;7.80;;;5.20;;
75820;SDS011;64454;51.984;9.838;2023-04-06T03:54:08;8.93;;;4.93;;
75820;SDS011;64454;51.984;9.838;2023-04-06T03:56:35;7.43;;;4.80;;
75820;SDS011;64454;51.984;9.838;2023-04-06T03:59:03;7.55;;;4.50;;
75820;SDS011;64454;51.984;9.838;2023-04-06T04:01:30;8.10;;;5.60;;
75820;SDS011;64454;51.984;9.838;2023-04-06T04:03:57;7.38;;;5.00;;
75820;SDS011;64454;51.984;9.838;2023-04-06T04:06:24;7.80;;;5.00;;
75820;SDS011;64454;51.984;9.838;2023-04-06T04:08:51;6.90;;;5.47;;
75820;SDS011;64454;51.984;9.838;2023-04-06T04:11:18;6.80;;;5.30;;
75820;SDS011;64454;51.984;9.838;2023-04-06T04:13:45;9.57;;;5.40;;
75820;SDS011;64454;51.984;9.838;2023-04-06T04:16:13;5.82;;;5.00;;
75820;SDS011;64454;51.984;9.838;2023-04-06T04:18:39;8.40;;;5.97;;
75820;SDS011;64454;51.984;9.838;2023-04-06T04:21:08;9.15;;;6.50;;
75820;SDS011;64454;51.984;9.838;2023-04-06T04:23:35;7.30;;;5.20;;
75820;SDS011;64454;51.984;9.838;2023-04-06T04:26:02;8.38;;;5.30;;
75820;SDS011;64454;51.984;9.838;2023-04-06T04:28:28;9.95;;;5.63;;
75820;SDS011;64454;51.984;9.838;2023-04-06T04:30:55;9.80;;;6.38;;
75820;SDS011;64454;51.984;9.838;2023-04-06T04:33:23;10.27;;;6.47;;
75820;SDS011;64454;51.984;9.838;2023-04-06T04:35:50;7.15;;;5.50;;
75820;SDS011;64454;51.984;9.838;2023-04-06T04:38:17;6.30;;;5.00;;
75820;SDS011;64454;51.984;9.838;2023-04-06T04:40:44;6.05;;;5.18;;
75820;SDS011;64454;51.984;9.838;2023-04-06T04:43:11;7.65;;;5.50;;
75820;SDS011;64454;51.984;9.838;2023-04-06T04:45:38;8.88;;;5.88;;
75820;SDS011;64454;51.984;9.838;2023-04-06T04:48:05;6.90;;;5.60;;
75820;SDS011;64454;51.984;9.838;2023-04-06T04:50:34;6.50;;;5.80;;
75820;SDS011;64454;51.984;9.838;2023-04-06T04:53:01;7.50;;;6.10;;
75820;SDS011;64454;51.984;9.838;2023-04-06T04:55:30;11.60;;;8.35;;
75820;SDS011;64454;51.984;9.838;2023-04-06T04:57:57;8.43;;;6.78;;
75820;SDS011;64454;51.984;9.838;2023-04-06T05:00:24;7.50;;;6.10;;
75820;SDS011;64454;51.984;9.838;2023-04-06T05:02:51;6.53;;;5.68;;
75820;SDS011;64454;51.984;9.838;2023-04-06T05:05:17;6.50;;;5.32;;
75820;SDS011;64454;51.984;9.838;2023-04-06T05:07:45;6.40;;;5.20;;
75820;SDS011;64454;51.984;9.838;2023-04-06T05:10:12;6.60;;;5.10;;
75820;SDS011;64454;51.984;9.838;2023-04-06T05:12:39;6.93;;;5.90;;
75820;SDS011;64454;51.984;9.838;2023-04-06T05:15:07;7.30;;;5.57;;
75820;SDS011;64454;51.984;9.838;2023-04-06T05:17:35;6.03;;;5.07;;
75820;SDS011;64454;51.984;9.838;2023-04-06T05:20:02;9.95;;;7.03;;
75820;SDS011;64454;51.984;9.838;2023-04-06T05:22:30;10.23;;;6.65;;
75820;SDS011;64454;51.984;9.838;2023-04-06T05:24:58;11.77;;;6.97;;
75820;SDS011;64454;51.984;9.838;2023-04-06T05:27:25;7.85;;;5.90;;
75820;SDS011;64454;51.984;9.838;2023-04-06T05:29:52;8.68;;;6.40;;
75820;SDS011;64454;51.984;9.838;2023-04-06T05:32:19;7.40;;;6.00;;
75820;SDS011;64454;51.984;9.838;2023-04-06T05:34:47;7.03;;;5.57;;
75820;SDS011;64454;51.984;9.838;2023-04-06T05:37:14;8.25;;;6.40;;
75820;SDS011;64454;51.984;9.838;2023-04-06T05:39:41;9.50;;;6.40;;
75820;SDS011;64454;51.984;9.838;2023-04-06T05:42:09;8.40;;;6.93;;
75820;SDS011;64454;51.984;9.838;2023-04-06T05:44:37;31.77;;;16.38;;
75820;SDS011;64454;51.984;9.838;2023-04-06T05:47:04;12.57;;;7.72;;
75820;SDS011;64454;51.984;9.838;2023-04-06T05:49:31;8.73;;;7.28;;
75820;SDS011;64454;51.984;9.838;2023-04-06T05:51:58;7.07;;;6.38;;
75820;SDS011;64454;51.984;9.838;2023-04-06T05:54:24;15.00;;;9.30;;
75820;SDS011;64454;51.984;9.838;2023-04-06T05:56:51;11.35;;;8.32;;
75820;SDS011;64454;51.984;9.838;2023-04-06T05:59:20;17.90;;;8.70;;
75820;SDS011;64454;51.984;9.838;2023-04-06T06:01:47;12.85;;;8.45;;
75820;SDS011;64454;51.984;9.838;2023-04-06T06:04:14;8.82;;;6.53;;
75820;SDS011;64454;51.984;9.838;2023-04-06T06:06:43;8.25;;;7.25;;
75820;SDS011;64454;51.984;9.838;2023-04-06T06:09:10;10.43;;;7.00;;
75820;SDS011;64454;51.984;9.838;2023-04-06T06:11:37;8.75;;;6.57;;
75820;SDS011;64454;51.984;9.838;2023-04-06T06:14:03;7.90;;;5.95;;
75820;SDS011;64454;51.984;9.838;2023-04-06T06:16:32;8.50;;;6.70;;
75820;SDS011;64454;51.984;9.838;2023-04-06T06:18:59;11.23;;;7.20;;
75820;SDS011;64454;51.984;9.838;2023-04-06T06:21:25;8.77;;;6.38;;
75820;SDS011;64454;51.984;9.838;2023-04-06T06:23:52;7.88;;;6.10;;
75820;SDS011;64454;51.984;9.838;2023-04-06T06:26:19;8.05;;;6.18;;
75820;SDS011;64454;51.984;9.838;2023-04-06T06:28:46;8.10;;;5.80;;
75820;SDS011;64454;51.984;9.838;2023-04-06T06:31:13;7.10;;;5.45;;
75820;SDS011;64454;51.984;9.838;2023-04-06T06:33:42;8.10;;;5.80;;
75820;SDS011;64454;51.984;9.838;2023-04-06T06:36:09;5.82;;;5.20;;
75820;SDS011;64454;51.984;9.838;2023-04-06T06:38:36;7.57;;;5.75;;
75820;SDS011;64454;51.984;9.838;2023-04-06T06:41:03;7.38;;;5.30;;
75820;SDS011;64454;51.984;9.838;2023-04-06T06:43:30;6.13;;;5.38;;
75820;SDS011;64454;51.984;9.838;2023-04-06T06:45:57;6.90;;;5.60;;
75820;SDS011;64454;51.984;9.838;2023-04-06T06:48:24;5.80;;;5.20;;
75820;SDS011;64454;51.984;9.838;2023-04-06T06:50:52;7.90;;;5.37;;
75820;SDS011;64454;51.984;9.838;2023-04-06T06:53:19;6.28;;;4.97;;
75820;SDS011;64454;51.984;9.838;2023-04-06T06:55:46;5.55;;;5.00;;
75820;SDS011;64454;51.984;9.838;2023-04-06T06:58:13;8.55;;;5.60;;
75820;SDS011;64454;51.984;9.838;2023-04-06T07:00:40;7.87;;;5.77;;
75820;SDS011;64454;51.984;9.838;2023-04-06T07:03:07;7.18;;;5.43;;
75820;SDS011;64454;51.984;9.838;2023-04-06T07:05:34;10.75;;;5.18;;
75820;SDS011;64454;51.984;9.838;2023-04-06T07:08:02;6.97;;;5.68;;
75820;SDS011;64454;51.984;9.838;2023-04-06T07:10:29;6.63;;;5.05;;
75820;SDS011;64454;51.984;9.838;2023-04-06T07:12:56;7.38;;;5.72;;
75820;SDS011;64454;51.984;9.838;2023-04-06T07:15:23;7.33;;;5.70;;
75820;SDS011;64454;51.984;9.838;2023-04-06T07:17:50;7.33;;;5.77;;
75820;SDS011;64454;51.984;9.838;2023-04-06T07:20:17;6.10;;;4.88;;
75820;SDS011;64454;51.984;9.838;2023-04-06T07:22:44;6.63;;;5.45;;
75820;SDS011;64454;51.984;9.838;2023-04-06T07:25:12;5.38;;;4.82;;
75820;SDS011;64454;51.984;9.838;2023-04-06T07:27:39;7.40;;;5.20;;
75820;SDS011;64454;51.984;9.838;2023-04-06T07:30:06;6.07;;;5.43;;
75820;SDS011;64454;51.984;9.838;2023-04-06T07:32:34;6.43;;;5.53;;
75820;SDS011;64454;51.984;9.838;2023-04-06T07:35:01;5.80;;;5.20;;
75820;SDS011;64454;51.984;9.838;2023-04-06T07:37:28;7.97;;;5.60;;
75820;SDS011;64454;51.984;9.838;2023-04-06T07:39:55;9.98;;;5.60;;
75820;SDS011;64454;51.984;9.838;2023-04-06T07:42:23;6.57;;;5.27;;
75820;SDS011;64454;51.984;9.838;2023-04-06T07:44:50;6.80;;;5.50;;
75820;SDS011;64454;51.984;9.838;2023-04-06T07:47:17;8.20;;;5.90;;
75820;SDS011;64454;51.984;9.838;2023-04-06T07:49:44;6.78;;;5.78;;
75820;SDS011;64454;51.984;9.838;2023-04-06T07:52:11;9.20;;;6.25;;
75820;SDS011;64454;51.984;9.838;2023-04-06T07:54:38;7.93;;;6.00;;
75820;SDS011;64454;51.984;9.838;2023-04-06T07:57:06;6.45;;;5.70;;
75820;SDS011;64454;51.984;9.838;2023-04-06T07:59:34;7.80;;;6.28;;
75820;SDS011;64454;51.984;9.838;2023-04-06T08:02:01;7.80;;;6.05;;
75820;SDS011;64454;51.984;9.838;2023-04-06T08:04:28;7.77;;;5.80;;
75820;SDS011;64454;51.984;9.838;2023-04-06T08:06:55;6.90;;;6.20;;
75820;SDS011;64454;51.984;9.838;2023-04-06T08:09:21;6.90;;;6.20;;
75820;SDS011;64454;51.984;9.838;2023-04-06T08:11:48;8.50;;;6.67;;
75820;SDS011;64454;51.984;9.838;2023-04-06T08:14:15;8.20;;;6.40;;
75820;SDS011;64454;51.984;9.838;2023-04-06T08:16:44;8.63;;;6.57;;
75820;SDS011;64454;51.984;9.838;2023-04-06T08:19:11;8.70;;;7.00;;
75820;SDS011;64454;51.984;9.838;2023-04-06T08:21:38;6.75;;;6.10;;
75820;SDS011;64454;51.984;9.838;2023-04-06T08:24:06;9.00;;;6.68;;
75820;SDS011;64454;51.984;9.838;2023-04-06T08:26:33;8.43;;;6.50;;
75820;SDS011;64454;51.984;9.838;2023-04-06T08:29:00;8.00;;;6.30;;
75820;SDS011;64454;51.984;9.838;2023-04-06T08:31:28;7.82;;;6.63;;
75820;SDS011;64454;51.984;9.838;2023-04-06T08:33:57;8.30;;;6.60;;
75820;SDS011;64454;51.984;9.838;2023-04-06T08:36:24;9.23;;;6.60;;
75820;SDS011;64454;51.984;9.838;2023-04-06T08:38:51;10.13;;;7.22;;
75820;SDS011;64454;51.984;9.838;2023-04-06T08:41:19;7.90;;;6.70;;
75820;SDS011;64454;51.984;9.838;2023-04-06T08:43:46;10.40;;;7.00;;
75820;SDS011;64454;51.984;9.838;2023-04-06T08:46:16;7.10;;;6.40;;
75820;SDS011;64454;51.984;9.838;2023-04-06T08:48:44;9.32;;;7.00;;
75820;SDS011;64454;51.984;9.838;2023-04-06T08:51:16;9.05;;;6.82;;
75820;SDS011;64454;51.984;9.838;2023-04-06T08:53:45;7.43;;;6.60;;
75820;SDS011;64454;51.984;9.838;2023-04-06T08:56:13;7.68;;;6.88;;
75820;SDS011;64454;51.984;9.838;2023-04-06T08:58:41;7.95;;;6.30;;
75820;SDS011;64454;51.984;9.838;2023-04-06T09:01:11;8.43;;;6.73;;
75820;SDS011;64454;51.984;9.838;2023-04-06T09:03:40;9.05;;;7.25;;
75820;SDS011;64454;51.984;9.838;2023-04-06T09:06:09;11.80;;;6.60;;
75820;SDS011;64454;51.984;9.838;2023-04-06T09:08:39;7.45;;;6.47;;
75820;SDS011;64454;51.984;9.838;2023-04-06T09:11:07;11.55;;;6.63;;
75820;SDS011;64454;51.984;9.838;2023-04-06T09:13:44;8.23;;;6.63;;
75820;SDS011;64454;51.984;9.838;2023-04-06T09:16:13;12.63;;;7.68;;
75820;SDS011;64454;51.984;9.838;2023-04-06T09:18:40;8.57;;;7.30;;
75820;SDS011;64454;51.984;9.838;2023-04-06T09:21:08;8.40;;;6.50;;
75820;SDS011;64454;51.984;9.838;2023-04-06T09:23:36;8.48;;;6.55;;
75820;SDS011;64454;51.984;9.838;2023-04-06T09:26:09;8.80;;;7.30;;
75820;SDS011;64454;51.984;9.838;2023-04-06T09:28:44;8.23;;;6.90;;
75820;SDS011;64454;51.984;9.838;2023-04-06T09:31:13;9.00;;;7.30;;
75820;SDS011;64454;51.984;9.838;2023-04-06T09:33:43;8.20;;;7.03;;
75820;SDS011;64454;51.984;9.838;2023-04-06T09:36:11;10.00;;;7.57;;
75820;SDS011;64454;51.984;9.838;2023-04-06T09:38:52;9.25;;;7.55;;
75820;SDS011;64454;51.984;9.838;2023-04-06T09:41:22;8.70;;;7.63;;
75820;SDS011;64454;51.984;9.838;2023-04-06T09:43:50;9.23;;;7.60;;
75820;SDS011;64454;51.984;9.838;2023-04-06T09:46:18;8.60;;;7.00;;
75820;SDS011;64454;51.984;9.838;2023-04-06T09:48:48;8.30;;;7.38;;
75820;SDS011;64454;51.984;9.838;2023-04-06T09:51:16;8.80;;;6.63;;
75820;SDS011;64454;51.984;9.838;2023-04-06T09:53:47;8.10;;;6.75;;
75820;SDS011;64454;51.984;9.838;2023-04-06T09:56:23;7.63;;;6.70;;
75820;SDS011;64454;51.984;9.838;2023-04-06T09:58:57;8.35;;;6.60;;
75820;SDS011;64454;51.984;9.838;2023-04-06T10:01:32;8.52;;;7.35;;
75820;SDS011;64454;51.984;9.838;2023-04-06T10:04:04;7.80;;;7.00;;
75820;SDS011;64454;51.984;9.838;2023-04-06T10:06:46;8.40;;;7.50;;
75820;SDS011;64454;51.984;9.838;2023-04-06T10:09:19;7.90;;;7.10;;
75820;SDS011;64454;51.984;9.838;2023-04-06T10:11:52;11.40;;;7.60;;
75820;SDS011;64454;51.984;9.838;2023-04-06T10:14:20;7.97;;;7.13;;
75820;SDS011;64454;51.984;9.838;2023-04-06T10:16:47;8.63;;;7.35;;
75820;SDS011;64454;51.984;9.838;2023-04-06T10:19:17;9.18;;;7.20;;
75820;SDS011;64454;51.984;9.838;2023-04-06T10:21:51;8.77;;;7.00;;
75820;SDS011;64454;51.984;9.838;2023-04-06T10:24:24;7.55;;;6.70;;
75820;SDS011;64454;51.984;9.838;2023-04-06T10:26:57;8.43;;;7.15;;
75820;SDS011;64454;51.984;9.838;2023-04-06T10:29:25;8.10;;;6.68;;
75820;SDS011;64454;51.984;9.838;2023-04-06T10:31:52;8.35;;;6.82;;
75820;SDS011;64454;51.984;9.838;2023-04-06T10:34:20;8.50;;;6.60;;
75820;SDS011;64454;51.984;9.838;2023-04-06T10:36:47;8.00;;;6.68;;
75820;SDS011;64454;51.984;9.838;2023-04-06T10:39:14;7.03;;;6.03;;
75820;SDS011;64454;51.984;9.838;2023-04-06T10:41:52;8.98;;;7.15;;
75820;SDS011;64454;51.984;9.838;2023-04-06T10:44:20;6.65;;;6.05;;
75820;SDS011;64454;51.984;9.838;2023-04-06T10:46:55;7.10;;;6.40;;
75820;SDS011;64454;51.984;9.838;2023-04-06T11:41:00;10.67;;;7.60;;
75820;SDS011;64454;51.984;9.838;2023-04-06T11:43:29;8.40;;;7.57;;
75820;SDS011;64454;51.984;9.838;2023-04-06T11:46:00;9.43;;;7.90;;
75820;SDS011;64454;51.984;9.838;2023-04-06T11:48:29;8.10;;;7.30;;
75820;SDS011;64454;51.984;9.838;2023-04-06T11:50:57;8.68;;;7.28;;
75820;SDS011;64454;51.984;9.838;2023-04-06T11:53:27;8.75;;;7.60;;
75820;SDS011;64454;51.984;9.838;2023-04-06T11:56:01;9.48;;;7.57;;
75820;SDS011;64454;51.984;9.838;2023-04-06T11:58:29;8.50;;;7.43;;
75820;SDS011;64454;51.984;9.838;2023-04-06T12:01:02;9.10;;;7.93;;
75820;SDS011;64454;51.984;9.838;2023-04-06T12:03:30;9.82;;;7.80;;
75820;SDS011;64454;51.984;9.838;2023-04-06T12:05:56;10.35;;;8.00;;
75820;SDS011;64454;51.984;9.838;2023-04-06T12:08:23;9.00;;;7.30;;
75820;SDS011;64454;51.984;9.838;2023-04-06T12:10:51;9.80;;;7.70;;
75820;SDS011;64454;51.984;9.838;2023-04-06T12:13:19;9.10;;;7.65;;
75820;SDS011;64454;51.984;9.838;2023-04-06T12:15:46;8.73;;;7.00;;
75820;SDS011;64454;51.984;9.838;2023-04-06T12:18:12;8.13;;;7.07;;
75820;SDS011;64454;51.984;9.838;2023-04-06T12:20:40;9.20;;;8.00;;
75820;SDS011;64454;51.984;9.838;2023-04-06T12:23:06;8.05;;;7.25;;
75820;SDS011;64454;51.984;9.838;2023-04-06T12:25:33;10.00;;;7.63;;
75820;SDS011;64454;51.984;9.838;2023-04-06T12:31:42;8.00;;;7.20;;
75820;SDS011;64454;51.984;9.838;2023-04-06T12:34:10;8.57;;;7.43;;
75820;SDS011;64454;51.984;9.838;2023-04-06T12:36:38;9.98;;;7.20;;
75820;SDS011;64454;51.984;9.838;2023-04-06T12:39:05;8.65;;;6.40;;
75820;SDS011;64454;51.984;9.838;2023-04-06T12:41:32;9.73;;;7.60;;
75820;SDS011;64454;51.984;9.838;2023-04-06T12:43:59;10.00;;;7.60;;
75820;SDS011;64454;51.984;9.838;2023-04-06T12:46:27;9.07;;;7.35;;
75820;SDS011;64454;51.984;9.838;2023-04-06T12:48:57;9.25;;;6.80;;
75820;SDS011;64454;51.984;9.838;2023-04-06T12:51:24;8.15;;;7.35;;
75820;SDS011;64454;51.984;9.838;2023-04-06T12:53:53;8.65;;;6.93;;
75820;SDS011;64454;51.984;9.838;2023-04-06T12:56:20;7.82;;;7.00;;
75820;SDS011;64454;51.984;9.838;2023-04-06T12:58:47;8.23;;;7.40;;
75820;SDS011;64454;51.984;9.838;2023-04-06T13:01:16;8.98;;;7.50;;
75820;SDS011;64454;51.984;9.838;2023-04-06T13:03:45;8.50;;;7.60;;
75820;SDS011;64454;51.984;9.838;2023-04-06T13:06:13;11.40;;;7.80;;
75820;SDS011;64454;51.984;9.838;2023-04-06T13:08:40;7.95;;;7.15;;
75820;SDS011;64454;51.984;9.838;2023-04-06T13:11:07;9.27;;;7.50;;
75820;SDS011;64454;51.984;9.838;2023-04-06T13:13:34;8.77;;;7.63;;
75820;SDS011;64454;51.984;9.838;2023-04-06T13:16:03;8.70;;;7.60;;
75820;SDS011;64454;51.984;9.838;2023-04-06T13:18:32;10.60;;;7.50;;
75820;SDS011;64454;51.984;9.838;2023-04-06T13:21:01;10.00;;;8.55;;
75820;SDS011;64454;51.984;9.838;2023-04-06T13:23:30;9.60;;;8.60;;
75820;SDS011;64454;51.984;9.838;2023-04-06T13:25:57;9.32;;;7.80;;
75820;SDS011;64454;51.984;9.838;2023-04-06T13:28:26;8.55;;;7.50;;
75820;SDS011;64454;51.984;9.838;2023-04-06T13:30:53;8.50;;;7.45;;
75820;SDS011;64454;51.984;9.838;2023-04-06T13:33:21;16.37;;;12.53;;
75820;SDS011;64454;51.984;9.838;2023-04-06T13:35:48;8.85;;;7.50;;
75820;SDS011;64454;51.984;9.838;2023-04-06T13:38:14;11.13;;;8.70;;
75820;SDS011;64454;51.984;9.838;2023-04-06T13:40:43;12.02;;;9.25;;
75820;SDS011;64454;51.984;9.838;2023-04-06T13:43:10;9.07;;;7.45;;
75820;SDS011;64454;51.984;9.838;2023-04-06T13:45:37;8.85;;;7.03;;
75820;SDS011;64454;51.984;9.838;2023-04-06T13:48:05;10.75;;;8.02;;
75820;SDS011;64454;51.984;9.838;2023-04-06T13:50:32;9.80;;;7.82;;
75820;SDS011;64454;51.984;9.838;2023-04-06T13:52:59;9.70;;;8.00;;
75820;SDS011;64454;51.984;9.838;2023-04-06T13:55:26;9.45;;;8.43;;
75820;SDS011;64454;51.984;9.838;2023-04-06T13:57:54;10.18;;;8.30;;
75820;SDS011;64454;51.984;9.838;2023-04-06T14:00:21;9.52;;;8.05;;
75820;SDS011;64454;51.984;9.838;2023-04-06T14:02:49;8.80;;;7.53;;
75820;SDS011;64454;51.984;9.838;2023-04-06T14:05:16;9.55;;;7.30;;
75820;SDS011;64454;51.984;9.838;2023-04-06T14:07:43;9.77;;;8.50;;
75820;SDS011;64454;51.984;9.838;2023-04-06T14:10:10;10.63;;;7.90;;
75820;SDS011;64454;51.984;9.838;2023-04-06T14:12:39;9.57;;;7.68;;
75820;SDS011;64454;51.984;9.838;2023-04-06T14:15:09;11.93;;;7.88;;
75820;SDS011;64454;51.984;9.838;2023-04-06T14:17:37;9.10;;;7.72;;
75820;SDS011;64454;51.984;9.838;2023-04-06T14:20:05;10.70;;;7.35;;
75820;SDS011;64454;51.984;9.838;2023-04-06T14:22:38;9.80;;;8.00;;
75820;SDS011;64454;51.984;9.838;2023-04-06T14:25:06;9.02;;;7.22;;
75820;SDS011;64454;51.984;9.838;2023-04-06T14:27:34;9.48;;;7.68;;
75820;SDS011;64454;51.984;9.838;2023-04-06T14:30:01;10.82;;;8.02;;
75820;SDS011;64454;51.984;9.838;2023-04-06T14:32:30;12.90;;;8.75;;
75820;SDS011;64454;51.984;9.838;2023-04-06T14:34:57;9.15;;;7.38;;
75820;SDS011;64454;51.984;9.838;2023-04-06T14:37:24;12.40;;;8.05;;
75820;SDS011;64454;51.984;9.838;2023-04-06T14:39:51;10.77;;;7.80;;
75820;SDS011;64454;51.984;9.838;2023-04-06T14:42:18;8.68;;;6.95;;
75820;SDS011;64454;51.984;9.838;2023-04-06T14:44:45;9.32;;;7.38;;
75820;SDS011;64454;51.984;9.838;2023-04-06T14:47:13;9.63;;;7.80;;
75820;SDS011;64454;51.984;9.838;2023-04-06T14:49:46;9.95;;;7.60;;
75820;SDS011;64454;51.984;9.838;2023-04-06T14:52:13;9.75;;;7.45;;
75820;SDS011;64454;51.984;9.838;2023-04-06T14:54:40;10.52;;;8.27;;
75820;SDS011;64454;51.984;9.838;2023-04-06T14:57:07;9.38;;;7.80;;
75820;SDS011;64454;51.984;9.838;2023-04-06T14:59:34;9.77;;;7.88;;
75820;SDS011;64454;51.984;9.838;2023-04-06T15:02:02;10.30;;;6.90;;
75820;SDS011;64454;51.984;9.838;2023-04-06T15:04:29;11.32;;;7.20;;
75820;SDS011;64454;51.984;9.838;2023-04-06T15:06:57;8.68;;;6.90;;
75820;SDS011;64454;51.984;9.838;2023-04-06T15:09:24;9.63;;;6.85;;
75820;SDS011;64454;51.984;9.838;2023-04-06T15:11:51;7.88;;;7.00;;
75820;SDS011;64454;51.984;9.838;2023-04-06T15:14:19;9.70;;;6.47;;
75820;SDS011;64454;51.984;9.838;2023-04-06T15:16:47;9.10;;;6.15;;
75820;SDS011;64454;51.984;9.838;2023-04-06T15:19:14;8.20;;;6.13;;
75820;SDS011;64454;51.984;9.838;2023-04-06T15:21:41;8.50;;;6.57;;
75820;SDS011;64454;51.984;9.838;2023-04-06T15:24:09;8.50;;;6.75;;
75820;SDS011;64454;51.984;9.838;2023-04-06T15:26:36;7.28;;;6.57;;
75820;SDS011;64454;51.984;9.838;2023-04-06T15:29:03;7.90;;;6.53;;
75820;SDS011;64454;51.984;9.838;2023-04-06T15:31:30;7.35;;;6.50;;
75820;SDS011;64454;51.984;9.838;2023-04-06T15:33:58;9.88;;;6.00;;
75820;SDS011;64454;51.984;9.838;2023-04-06T15:36:26;6.90;;;5.60;;
75820;SDS011;64454;51.984;9.838;2023-04-06T15:38:55;7.07;;;5.68;;
75820;SDS011;64454;51.984;9.838;2023-04-06T15:41:24;6.75;;;5.10;;
75820;SDS011;64454;51.984;9.838;2023-04-06T15:43:52;10.30;;;6.05;;